Buoy 54955

sailwx.info

Track history (hours):
 
Tides and Currents Weather Stations Pressure Air Temp Water Temp Dewpoint Dewpoint Depression Visibility Wind Speed Wind Dir Waves Ship Positions

Luruyu54955

Last reported at 2016-Jun-30 16:00 UTC. Time now 2016-Jun-30 19:35 UTC.
Position S 34°12' W 155°11'.

Length 27 m.

Type: Fishing. MMSI: 412330945.

Barometer 1019.9 mb
Water temperature 16.5 ° C

Date/timePositionNaut miles runAvg speedWind from/ knotsBaromVisibWave heightAir tempDewpointWater temp
2016-Jun-30 16:00S 34°12' W 155°11'0 0.0 1019.9 16.5
2016-Jun-30 15:00S 34°12' W 155°11'0 0.0 1020.1 16.5
2016-Jun-30 14:00S 34°12' W 155°11'2 0.9 1019.9 16.5
2016-Jun-30 12:00S 34°13' W 155°13'2 0.4 1020.2 16.5
2016-Jun-30 07:00S 34°14' W 155°15'1 0.4 1021.5 16.6
2016-Jun-30 05:00S 34°15' W 155°16'1 1.0 1021.0 16.6
2016-Jun-30 04:00S 34°15' W 155°17'1 0.8 1020.8 16.6
2016-Jun-30 03:00S 34°16' W 155°17'1 1.2 1020.7 16.6
2016-Jun-30 02:00S 34°16' W 155°18'0 0.1 1020.3 16.7
2016-Jun-30 01:00S 34°16' W 155°18'0 0.0 1020.3 16.6
2016-Jun-30 00:00S 34°16' W 155°18'6 1.0 1020.7 16.6
2016-Jun-29 18:00S 34°20' W 155°24'0 0.2 1021.3 16.4
2016-Jun-29 17:00S 34°20' W 155°24'1 0.9 1021.1 16.4
2016-Jun-29 16:00S 34°20' W 155°25'0 0.3 1020.9 16.4
2016-Jun-29 15:00S 34°20' W 155°25'1 0.9 1020.5 16.4
2016-Jun-29 14:00S 34°20' W 155°26'1 0.4 1020.1 16.5
2016-Jun-29 12:00S 34°20' W 155°27'1 0.4 1020.5 16.5
2016-Jun-29 09:00S 34°21' W 155°28'0 0.4 1020.5 16.5
2016-Jun-29 08:00S 34°21' W 155°29'0 0.3 1020.6 16.6
2016-Jun-29 07:00S 34°21' W 155°29'1 1.1 1020.5 16.6
2016-Jun-29 06:00S 34°22' W 155°30'1 0.6 1020.3 16.6
2016-Jun-29 05:00S 34°22' W 155°31'1 0.9 1020.2 16.6
2016-Jun-29 04:00S 34°22' W 155°31'2 1.6 1019.2 16.7
2016-Jun-29 03:00S 34°24' W 155°32'0 0.0 1019.1 16.7
2016-Jun-29 02:00S 34°24' W 155°32'0 0.3 1018.6 16.7
2016-Jun-29 01:00S 34°24' W 155°31'0 0.0 1018.2 16.7
2016-Jun-29 00:00S 34°24' W 155°31'4 0.8 1017.9 16.7
2016-Jun-28 19:00S 34°27' W 155°34'3 2.5 1018.6 16.6
2016-Jun-28 18:00S 34°26' W 155°37'0 0.3 1018.8 16.6
2016-Jun-28 17:00S 34°26' W 155°38'0 0.0 1018.6 16.5
2016-Jun-28 16:00S 34°26' W 155°38'1 0.7 1018.8 16.5
2016-Jun-28 15:00S 34°26' W 155°39'2 1.7 1019.0 16.5
2016-Jun-28 14:00S 34°26' W 155°41'2 0.3 1019.3 16.6
2016-Jun-28 06:00S 34°25' W 155°43'1 0.6 1022.8 16.2
2016-Jun-28 05:00S 34°26' W 155°42'1 1.2 1023.1 16.2
2016-Jun-28 04:00S 34°25' W 155°44'3 2.8 1023.1 16.2
2016-Jun-28 03:00S 34°25' W 155°47'0 0.0 1023.2 16.3
2016-Jun-28 02:00S 34°25' W 155°47'0 0.0 1023.4 16.4
2016-Jun-28 01:00S 34°25' W 155°47'0 0.0 1023.7 16.5
2016-Jun-27 23:00S 34°25' W 155°47'1 0.3 1024.3 16.6
2016-Jun-27 19:00S 34°25' W 155°48'2 1.9 1026.9 16.9
2016-Jun-27 18:00S 34°25' W 155°51'0 0.3 1027.1 17.0
2016-Jun-27 17:00S 34°24' W 155°51'1 0.7 1027.3 17.1
2016-Jun-27 16:00S 34°24' W 155°52'1 0.6 1026.9 17.1
2016-Jun-27 15:00S 34°24' W 155°52'0 0.0 1026.6 17.1
2016-Jun-27 14:00S 34°24' W 155°52'0 0.5 1026.6 17.0
2016-Jun-27 13:00S 34°24' W 155°53'2 0.7 1026.6 17.1
2016-Jun-27 10:00S 34°23' W 155°55'0 0.5 1027.6 17.2
2016-Jun-27 09:00S 34°23' W 155°55'0 0.0 1028.4 17.2
2016-Jun-27 08:00S 34°23' W 155°55'0 0.3 1028.9 17.2
2016-Jun-27 07:00S 34°23' W 155°56'1 0.6 1029.5 17.3
2016-Jun-27 06:00S 34°23' W 155°56'1 1.4 1029.4 17.3
2016-Jun-27 05:00S 34°23' W 155°58'0 0.4 1029.1 17.4
2016-Jun-27 04:00S 34°23' W 155°58'0 0.0 1028.5 17.4
2016-Jun-27 03:00S 34°23' W 155°58'2 2.2 1028.7 17.4
2016-Jun-27 02:00S 34°23' W 156°01'0 0.0 1028.7 17.4
2016-Jun-27 01:00S 34°23' W 156°01'3 1.3 1028.4 17.4
2016-Jun-26 23:00S 34°21' W 156°03'0 0.1 1028.6 17.5
2016-Jun-26 19:00S 34°21' W 156°03'1 0.9 1030.0 17.4
2016-Jun-26 18:00S 34°22' W 156°04'0 0.4 1029.8 17.4
2016-Jun-26 17:00S 34°22' W 156°05'0 0.2 1029.4 17.4
2016-Jun-26 16:00S 34°21' W 156°05'1 0.6 1029.0 17.4
2016-Jun-26 15:00S 34°22' W 156°04'2 0.8 1028.8 17.4
2016-Jun-26 13:00S 34°21' W 156°06'1 0.5 1029.5 17.4
2016-Jun-26 12:00S 34°21' W 156°07'0 0.2 1029.6 17.4
2016-Jun-26 11:00S 34°22' W 156°06'1 0.3 1029.6 17.4
2016-Jun-26 09:00S 34°21' W 156°07'0 0.4 1030.1 17.4
2016-Jun-26 08:00S 34°21' W 156°08'0 0.3 1030.2 17.4
2016-Jun-26 07:00S 34°21' W 156°08'0 0.1 1030.1 17.5
2016-Jun-26 06:00S 34°21' W 156°08'1 1.0 1029.8 17.5
2016-Jun-26 05:00S 34°21' W 156°09'1 0.7 1029.9 17.5
2016-Jun-26 04:00S 34°21' W 156°08'1 0.6 1029.4 17.5
2016-Jun-26 03:00S 34°21' W 156°09'0 0.0 1028.9 17.5
2016-Jun-26 02:00S 34°21' W 156°09'0 0.3 1028.5 17.5
2016-Jun-26 01:00S 34°21' W 156°09'0 0.2 1028.1 17.6
2016-Jun-26 00:00S 34°21' W 156°09'0 0.0 1028.2 17.5
2016-Jun-25 23:00S 34°21' W 156°09'0 0.0 1028.2 17.5
2016-Jun-25 21:00S 34°21' W 156°09'1 0.7 1029.5 17.5
2016-Jun-25 20:00S 34°21' W 156°10'1 0.4 1029.5 17.4
2016-Jun-25 18:00S 34°22' W 156°10'1 0.7 1029.0 17.3
2016-Jun-25 17:00S 34°21' W 156°10'0 0.1 1028.8 17.3
2016-Jun-25 16:00S 34°21' W 156°10'1 0.9 1028.4 17.3
2016-Jun-25 15:00S 34°21' W 156°11'0 0.2 1028.4 17.3
2016-Jun-25 13:00S 34°21' W 156°11'0 0.3 1028.1 17.3
2016-Jun-25 12:00S 34°21' W 156°11'0 0.4 1028.5 17.3
2016-Jun-25 11:00S 34°21' W 156°12'0 0.1 1028.6 17.3
2016-Jun-25 08:00S 34°21' W 156°11'0 0.4 1028.4 17.3
2016-Jun-25 07:00S 34°22' W 156°12'0 0.2 1028.4 17.3
2016-Jun-25 06:00S 34°21' W 156°12'1 1.2 1028.0 17.3
2016-Jun-25 05:00S 34°22' W 156°10'1 1.0 1028.5 17.2
2016-Jun-25 04:00S 34°22' W 156°11'0 0.2 1027.7 17.2
2016-Jun-25 03:00S 34°22' W 156°11'0 0.2 1027.8 17.2
2016-Jun-25 02:00S 34°22' W 156°11'0 0.0 1027.0 17.3
2016-Jun-25 01:00S 34°22' W 156°11'1 0.6 1027.5 17.3
2016-Jun-25 00:00S 34°23' W 156°11'1 0.2 1027.7 17.2
2016-Jun-24 19:00S 34°23' W 156°12'0 0.2 1028.0 17.2
2016-Jun-24 18:00S 34°23' W 156°12'1 0.5 1027.6 17.1
2016-Jun-24 17:00S 34°23' W 156°13'0 0.2 1027.2 17.1
2016-Jun-24 16:00S 34°23' W 156°12'1 0.8 1026.6 17.1
2016-Jun-24 15:00S 34°24' W 156°13'0 0.0 1026.6 17.1
2016-Jun-24 14:00S 34°24' W 156°13'0 0.3 1027.1 17.1
2016-Jun-24 13:00S 34°24' W 156°13'1 0.9 1027.2 17.1
2016-Jun-24 12:00S 34°24' W 156°14'0 0.2 1027.5 17.1
2016-Jun-24 11:00S 34°24' W 156°14'0 0.3 1027.7 17.2
2016-Jun-24 10:00S 34°25' W 156°14'0 0.0 1027.3 17.2
2016-Jun-24 09:00S 34°25' W 156°14'1 0.7 1027.5 17.2
2016-Jun-24 08:00S 34°25' W 156°15'0 0.1 1027.2 17.2
2016-Jun-24 07:00S 34°25' W 156°15'0 0.1 1027.2 17.2
2016-Jun-24 06:00S 34°25' W 156°15'0 0.1 1027.1 17.2
2016-Jun-24 04:00S 34°25' W 156°15'0 0.2 1026.5 17.2
2016-Jun-24 03:00S 34°25' W 156°15'0 0.0 1026.4 17.2
2016-Jun-24 02:00S 34°25' W 156°15'1 0.7 1026.2 17.2
2016-Jun-24 01:00S 34°26' W 156°15'0 0.2 1025.8 17.2
2016-Jun-24 00:00S 34°26' W 156°15'2 0.6 1026.0 17.2
2016-Jun-23 20:00S 34°27' W 156°18'0 0.5 1027.5 17.2
2016-Jun-23 19:00S 34°28' W 156°18'0 0.0 1026.9 17.2
2016-Jun-23 18:00S 34°28' W 156°18'0 0.0 1026.3 17.2
2016-Jun-23 17:00S 34°28' W 156°18'1 0.7 1025.9 17.2
2016-Jun-23 16:00S 34°28' W 156°18'1 0.9 1026.1 17.2
2016-Jun-23 15:00S 34°29' W 156°19'0 0.4 1025.5 17.2
2016-Jun-23 14:00S 34°29' W 156°18'0 0.0 1025.8 17.2
2016-Jun-23 13:00S 34°29' W 156°18'1 0.5 1025.9 17.2
2016-Jun-23 12:00S 34°29' W 156°19'0 0.0 1025.8 17.3
2016-Jun-23 11:00S 34°29' W 156°19'1 0.6 1025.6 17.3
2016-Jun-23 09:00S 34°30' W 156°20'0 0.1 1025.7 17.3
2016-Jun-23 08:00S 34°30' W 156°20'1 0.9 1025.4 17.3
2016-Jun-23 07:00S 34°31' W 156°20'0 0.0 1024.8 17.3
2016-Jun-23 06:00S 34°31' W 156°20'0 0.3 1025.0 17.3
2016-Jun-23 05:00S 34°31' W 156°20'0 0.3 1024.5 17.3
2016-Jun-23 04:00S 34°31' W 156°20'0 0.5 1024.0 17.3
2016-Jun-23 03:00S 34°32' W 156°19'0 0.0 1023.8 17.3
2016-Jun-23 02:00S 34°32' W 156°19'2 0.8 1023.4 17.3
2016-Jun-23 00:00S 34°33' W 156°20'2 0.6 1022.5 17.3
2016-Jun-22 20:00S 34°35' W 156°22'2 1.5 1023.1 17.2
2016-Jun-22 19:00S 34°36' W 156°21'2 0.9 1022.7 17.2
2016-Jun-22 17:00S 34°37' W 156°23'1 0.7 1021.3 17.1
2016-Jun-22 16:00S 34°38' W 156°23'1 0.6 1020.5 17.0
2016-Jun-22 15:00S 34°38' W 156°23'0 0.0 1019.9 17.1
2016-Jun-22 14:00S 34°38' W 156°23'2 1.2 1019.6 17.1
2016-Jun-22 12:00S 34°40' W 156°23'0 0.0 1019.4 17.1
2016-Jun-22 11:00S 34°40' W 156°23'0 0.0 1019.4 17.1
2016-Jun-22 09:00S 34°40' W 156°23'1 0.8 1019.3 17.1
2016-Jun-22 08:00S 34°40' W 156°22'0 0.3 1019.1 17.1
2016-Jun-22 07:00S 34°41' W 156°23'3 1.3 1018.9 17.1
2016-Jun-22 05:00S 34°43' W 156°23'0 0.0 1017.9 17.0
2016-Jun-22 04:00S 34°43' W 156°23'1 0.9 1017.2 17.0
2016-Jun-22 03:00S 34°44' W 156°22'1 1.2 1016.6 17.0
2016-Jun-22 02:00S 34°45' W 156°22'0 0.0 1016.1 17.0
2016-Jun-22 01:00S 34°45' W 156°22'0 0.3 1015.8 17.0
2016-Jun-22 00:00S 34°45' W 156°22'3 0.7 1016.1 17.0
2016-Jun-21 20:00S 34°48' W 156°21'1 1.3 1018.1 16.7
2016-Jun-21 19:00S 34°49' W 156°21'0 0.0 1018.0 16.7
2016-Jun-21 17:00S 34°49' W 156°21'0 0.4 1017.3 16.6
2016-Jun-21 16:00S 34°49' W 156°21'1 1.0 1017.3 16.6
2016-Jun-21 15:00S 34°49' W 156°22'2 1.6 1017.4 16.5
2016-Jun-21 14:00S 34°50' W 156°21'1 0.3 1017.9 16.4
2016-Jun-21 12:00S 34°50' W 156°21'3 0.9 1018.2 16.4
2016-Jun-21 08:00S 34°52' W 156°18'1 0.9 1020.1 16.4
2016-Jun-21 07:00S 34°53' W 156°18'1 0.8 1020.6 16.4
2016-Jun-21 06:00S 34°53' W 156°18'0 0.1 1020.4 16.5
2016-Jun-21 05:00S 34°53' W 156°18'1 0.8 1020.5 16.7
2016-Jun-21 04:00S 34°54' W 156°18'0 0.4 1019.9 16.8
2016-Jun-21 03:00S 34°55' W 156°18'1 0.9 1019.7 16.9
2016-Jun-21 02:00S 34°55' W 156°17'1 0.8 1019.4 17.0
2016-Jun-21 01:00S 34°55' W 156°18'0 0.0 1019.8 17.0
2016-Jun-21 00:00S 34°55' W 156°18'3 0.6 1019.6 17.0
2016-Jun-20 19:00S 34°56' W 156°14'2 1.1 1020.8 16.4
2016-Jun-20 17:00S 34°56' W 156°12'1 1.2 1019.2 16.3
2016-Jun-20 16:00S 34°58' W 156°12'   1018.2 16.2
Track history (hours):
 
Tides and Currents Weather Stations Pressure Air Temp Water Temp Dewpoint Dewpoint Depression Visibility Wind Speed Wind Dir Waves Ship Positions

Luruyu54955

Last reported at 2016-Jun-30 16:00 UTC. Time now 2016-Jun-30 19:35 UTC.
Position S 34°12' W 155°11'.

Length 27 m.

Type: Fishing. MMSI: 412330945.

Barometer 1019.9 mb
Water temperature 16.5 ° C

Date/timePositionNaut miles runAvg speedWind from/ knotsBaromVisibWave heightAir tempDewpointWater temp
2016-Jun-30 16:00S 34°12' W 155°11'0 0.0 1019.9 16.5
2016-Jun-30 15:00S 34°12' W 155°11'0 0.0 1020.1 16.5
2016-Jun-30 14:00S 34°12' W 155°11'2 0.9 1019.9 16.5
2016-Jun-30 12:00S 34°13' W 155°13'2 0.4 1020.2 16.5
2016-Jun-30 07:00S 34°14' W 155°15'1 0.4 1021.5 16.6
2016-Jun-30 05:00S 34°15' W 155°16'1 1.0 1021.0 16.6
2016-Jun-30 04:00S 34°15' W 155°17'1 0.8 1020.8 16.6
2016-Jun-30 03:00S 34°16' W 155°17'1 1.2 1020.7 16.6
2016-Jun-30 02:00S 34°16' W 155°18'0 0.1 1020.3 16.7
2016-Jun-30 01:00S 34°16' W 155°18'0 0.0 1020.3 16.6
2016-Jun-30 00:00S 34°16' W 155°18'6 1.0 1020.7 16.6
2016-Jun-29 18:00S 34°20' W 155°24'0 0.2 1021.3 16.4
2016-Jun-29 17:00S 34°20' W 155°24'1 0.9 1021.1 16.4
2016-Jun-29 16:00S 34°20' W 155°25'0 0.3 1020.9 16.4
2016-Jun-29 15:00S 34°20' W 155°25'1 0.9 1020.5 16.4
2016-Jun-29 14:00S 34°20' W 155°26'1 0.4 1020.1 16.5
2016-Jun-29 12:00S 34°20' W 155°27'1 0.4 1020.5 16.5
2016-Jun-29 09:00S 34°21' W 155°28'0 0.4 1020.5 16.5
2016-Jun-29 08:00S 34°21' W 155°29'0 0.3 1020.6 16.6
2016-Jun-29 07:00S 34°21' W 155°29'1 1.1 1020.5 16.6
2016-Jun-29 06:00S 34°22' W 155°30'1 0.6 1020.3 16.6
2016-Jun-29 05:00S 34°22' W 155°31'1 0.9 1020.2 16.6
2016-Jun-29 04:00S 34°22' W 155°31'2 1.6 1019.2 16.7
2016-Jun-29 03:00S 34°24' W 155°32'0 0.0 1019.1 16.7
2016-Jun-29 02:00S 34°24' W 155°32'0 0.3 1018.6 16.7
2016-Jun-29 01:00S 34°24' W 155°31'0 0.0 1018.2 16.7
2016-Jun-29 00:00S 34°24' W 155°31'4 0.8 1017.9 16.7
2016-Jun-28 19:00S 34°27' W 155°34'3 2.5 1018.6 16.6
2016-Jun-28 18:00S 34°26' W 155°37'0 0.3 1018.8 16.6
2016-Jun-28 17:00S 34°26' W 155°38'0 0.0 1018.6 16.5
2016-Jun-28 16:00S 34°26' W 155°38'1 0.7 1018.8 16.5
2016-Jun-28 15:00S 34°26' W 155°39'2 1.7 1019.0 16.5
2016-Jun-28 14:00S 34°26' W 155°41'2 0.3 1019.3 16.6
2016-Jun-28 06:00S 34°25' W 155°43'1 0.6 1022.8 16.2
2016-Jun-28 05:00S 34°26' W 155°42'1 1.2 1023.1 16.2
2016-Jun-28 04:00S 34°25' W 155°44'3 2.8 1023.1 16.2
2016-Jun-28 03:00S 34°25' W 155°47'0 0.0 1023.2 16.3
2016-Jun-28 02:00S 34°25' W 155°47'0 0.0 1023.4 16.4
2016-Jun-28 01:00S 34°25' W 155°47'0 0.0 1023.7 16.5
2016-Jun-27 23:00S 34°25' W 155°47'1 0.3 1024.3 16.6
2016-Jun-27 19:00S 34°25' W 155°48'2 1.9 1026.9 16.9
2016-Jun-27 18:00S 34°25' W 155°51'0 0.3 1027.1 17.0
2016-Jun-27 17:00S 34°24' W 155°51'1 0.7 1027.3 17.1
2016-Jun-27 16:00S 34°24' W 155°52'1 0.6 1026.9 17.1
2016-Jun-27 15:00S 34°24' W 155°52'0 0.0 1026.6 17.1
2016-Jun-27 14:00S 34°24' W 155°52'0 0.5 1026.6 17.0
2016-Jun-27 13:00S 34°24' W 155°53'2 0.7 1026.6 17.1
2016-Jun-27 10:00S 34°23' W 155°55'0 0.5 1027.6 17.2
2016-Jun-27 09:00S 34°23' W 155°55'0 0.0 1028.4 17.2
2016-Jun-27 08:00S 34°23' W 155°55'0 0.3 1028.9 17.2
2016-Jun-27 07:00S 34°23' W 155°56'1 0.6 1029.5 17.3
2016-Jun-27 06:00S 34°23' W 155°56'1 1.4 1029.4 17.3
2016-Jun-27 05:00S 34°23' W 155°58'0 0.4 1029.1 17.4
2016-Jun-27 04:00S 34°23' W 155°58'0 0.0 1028.5 17.4
2016-Jun-27 03:00S 34°23' W 155°58'2 2.2 1028.7 17.4
2016-Jun-27 02:00S 34°23' W 156°01'0 0.0 1028.7 17.4
2016-Jun-27 01:00S 34°23' W 156°01'3 1.3 1028.4 17.4
2016-Jun-26 23:00S 34°21' W 156°03'0 0.1 1028.6 17.5
2016-Jun-26 19:00S 34°21' W 156°03'1 0.9 1030.0 17.4
2016-Jun-26 18:00S 34°22' W 156°04'0 0.4 1029.8 17.4
2016-Jun-26 17:00S 34°22' W 156°05'0 0.2 1029.4 17.4
2016-Jun-26 16:00S 34°21' W 156°05'1 0.6 1029.0 17.4
2016-Jun-26 15:00S 34°22' W 156°04'2 0.8 1028.8 17.4
2016-Jun-26 13:00S 34°21' W 156°06'1 0.5 1029.5 17.4
2016-Jun-26 12:00S 34°21' W 156°07'0 0.2 1029.6 17.4
2016-Jun-26 11:00S 34°22' W 156°06'1 0.3 1029.6 17.4
2016-Jun-26 09:00S 34°21' W 156°07'0 0.4 1030.1 17.4
2016-Jun-26 08:00S 34°21' W 156°08'0 0.3 1030.2 17.4
2016-Jun-26 07:00S 34°21' W 156°08'0 0.1 1030.1 17.5
2016-Jun-26 06:00S 34°21' W 156°08'1 1.0 1029.8 17.5
2016-Jun-26 05:00S 34°21' W 156°09'1 0.7 1029.9 17.5
2016-Jun-26 04:00S 34°21' W 156°08'1 0.6 1029.4 17.5
2016-Jun-26 03:00S 34°21' W 156°09'0 0.0 1028.9 17.5
2016-Jun-26 02:00S 34°21' W 156°09'0 0.3 1028.5 17.5
2016-Jun-26 01:00S 34°21' W 156°09'0 0.2 1028.1 17.6
2016-Jun-26 00:00S 34°21' W 156°09'0 0.0 1028.2 17.5
2016-Jun-25 23:00S 34°21' W 156°09'0 0.0 1028.2 17.5
2016-Jun-25 21:00S 34°21' W 156°09'1 0.7 1029.5 17.5
2016-Jun-25 20:00S 34°21' W 156°10'1 0.4 1029.5 17.4
2016-Jun-25 18:00S 34°22' W 156°10'1 0.7 1029.0 17.3
2016-Jun-25 17:00S 34°21' W 156°10'0 0.1 1028.8 17.3
2016-Jun-25 16:00S 34°21' W 156°10'1 0.9 1028.4 17.3
2016-Jun-25 15:00S 34°21' W 156°11'0 0.2 1028.4 17.3
2016-Jun-25 13:00S 34°21' W 156°11'0 0.3 1028.1 17.3
2016-Jun-25 12:00S 34°21' W 156°11'0 0.4 1028.5 17.3
2016-Jun-25 11:00S 34°21' W 156°12'0 0.1 1028.6 17.3
2016-Jun-25 08:00S 34°21' W 156°11'0 0.4 1028.4 17.3
2016-Jun-25 07:00S 34°22' W 156°12'0 0.2 1028.4 17.3
2016-Jun-25 06:00S 34°21' W 156°12'1 1.2 1028.0 17.3
2016-Jun-25 05:00S 34°22' W 156°10'1 1.0 1028.5 17.2
2016-Jun-25 04:00S 34°22' W 156°11'0 0.2 1027.7 17.2
2016-Jun-25 03:00S 34°22' W 156°11'0 0.2 1027.8 17.2
2016-Jun-25 02:00S 34°22' W 156°11'0 0.0 1027.0 17.3
2016-Jun-25 01:00S 34°22' W 156°11'1 0.6 1027.5 17.3
2016-Jun-25 00:00S 34°23' W 156°11'1 0.2 1027.7 17.2
2016-Jun-24 19:00S 34°23' W 156°12'0 0.2 1028.0 17.2
2016-Jun-24 18:00S 34°23' W 156°12'1 0.5 1027.6 17.1
2016-Jun-24 17:00S 34°23' W 156°13'0 0.2 1027.2 17.1
2016-Jun-24 16:00S 34°23' W 156°12'1 0.8 1026.6 17.1
2016-Jun-24 15:00S 34°24' W 156°13'0 0.0 1026.6 17.1
2016-Jun-24 14:00S 34°24' W 156°13'0 0.3 1027.1 17.1
2016-Jun-24 13:00S 34°24' W 156°13'1 0.9 1027.2 17.1
2016-Jun-24 12:00S 34°24' W 156°14'0 0.2 1027.5 17.1
2016-Jun-24 11:00S 34°24' W 156°14'0 0.3 1027.7 17.2
2016-Jun-24 10:00S 34°25' W 156°14'0 0.0 1027.3 17.2
2016-Jun-24 09:00S 34°25' W 156°14'1 0.7 1027.5 17.2
2016-Jun-24 08:00S 34°25' W 156°15'0 0.1 1027.2 17.2
2016-Jun-24 07:00S 34°25' W 156°15'0 0.1 1027.2 17.2
2016-Jun-24 06:00S 34°25' W 156°15'0 0.1 1027.1 17.2
2016-Jun-24 04:00S 34°25' W 156°15'0 0.2 1026.5 17.2
2016-Jun-24 03:00S 34°25' W 156°15'0 0.0 1026.4 17.2
2016-Jun-24 02:00S 34°25' W 156°15'1 0.7 1026.2 17.2
2016-Jun-24 01:00S 34°26' W 156°15'0 0.2 1025.8 17.2
2016-Jun-24 00:00S 34°26' W 156°15'2 0.6 1026.0 17.2
2016-Jun-23 20:00S 34°27' W 156°18'0 0.5 1027.5 17.2
2016-Jun-23 19:00S 34°28' W 156°18'0 0.0 1026.9 17.2
2016-Jun-23 18:00S 34°28' W 156°18'0 0.0 1026.3 17.2
2016-Jun-23 17:00S 34°28' W 156°18'1 0.7 1025.9 17.2
2016-Jun-23 16:00S 34°28' W 156°18'1 0.9 1026.1 17.2
2016-Jun-23 15:00S 34°29' W 156°19'0 0.4 1025.5 17.2
2016-Jun-23 14:00S 34°29' W 156°18'0 0.0 1025.8 17.2
2016-Jun-23 13:00S 34°29' W 156°18'1 0.5 1025.9 17.2
2016-Jun-23 12:00S 34°29' W 156°19'0 0.0 1025.8 17.3
2016-Jun-23 11:00S 34°29' W 156°19'1 0.6 1025.6 17.3
2016-Jun-23 09:00S 34°30' W 156°20'0 0.1 1025.7 17.3
2016-Jun-23 08:00S 34°30' W 156°20'1 0.9 1025.4 17.3
2016-Jun-23 07:00S 34°31' W 156°20'0 0.0 1024.8 17.3
2016-Jun-23 06:00S 34°31' W 156°20'0 0.3 1025.0 17.3
2016-Jun-23 05:00S 34°31' W 156°20'0 0.3 1024.5 17.3
2016-Jun-23 04:00S 34°31' W 156°20'0 0.5 1024.0 17.3
2016-Jun-23 03:00S 34°32' W 156°19'0 0.0 1023.8 17.3
2016-Jun-23 02:00S 34°32' W 156°19'2 0.8 1023.4 17.3
2016-Jun-23 00:00S 34°33' W 156°20'2 0.6 1022.5 17.3
2016-Jun-22 20:00S 34°35' W 156°22'2 1.5 1023.1 17.2
2016-Jun-22 19:00S 34°36' W 156°21'2 0.9 1022.7 17.2
2016-Jun-22 17:00S 34°37' W 156°23'1 0.7 1021.3 17.1
2016-Jun-22 16:00S 34°38' W 156°23'1 0.6 1020.5 17.0
2016-Jun-22 15:00S 34°38' W 156°23'0 0.0 1019.9 17.1
2016-Jun-22 14:00S 34°38' W 156°23'2 1.2 1019.6 17.1
2016-Jun-22 12:00S 34°40' W 156°23'0 0.0 1019.4 17.1
2016-Jun-22 11:00S 34°40' W 156°23'0 0.0 1019.4 17.1
2016-Jun-22 09:00S 34°40' W 156°23'1 0.8 1019.3 17.1
2016-Jun-22 08:00S 34°40' W 156°22'0 0.3 1019.1 17.1
2016-Jun-22 07:00S 34°41' W 156°23'3 1.3 1018.9 17.1
2016-Jun-22 05:00S 34°43' W 156°23'0 0.0 1017.9 17.0
2016-Jun-22 04:00S 34°43' W 156°23'1 0.9 1017.2 17.0
2016-Jun-22 03:00S 34°44' W 156°22'1 1.2 1016.6 17.0
2016-Jun-22 02:00S 34°45' W 156°22'0 0.0 1016.1 17.0
2016-Jun-22 01:00S 34°45' W 156°22'0 0.3 1015.8 17.0
2016-Jun-22 00:00S 34°45' W 156°22'3 0.7 1016.1 17.0
2016-Jun-21 20:00S 34°48' W 156°21'1 1.3 1018.1 16.7
2016-Jun-21 19:00S 34°49' W 156°21'0 0.0 1018.0 16.7
2016-Jun-21 17:00S 34°49' W 156°21'0 0.4 1017.3 16.6
2016-Jun-21 16:00S 34°49' W 156°21'1 1.0 1017.3 16.6
2016-Jun-21 15:00S 34°49' W 156°22'2 1.6 1017.4 16.5
2016-Jun-21 14:00S 34°50' W 156°21'1 0.3 1017.9 16.4
2016-Jun-21 12:00S 34°50' W 156°21'3 0.9 1018.2 16.4
2016-Jun-21 08:00S 34°52' W 156°18'1 0.9 1020.1 16.4
2016-Jun-21 07:00S 34°53' W 156°18'1 0.8 1020.6 16.4
2016-Jun-21 06:00S 34°53' W 156°18'0 0.1 1020.4 16.5
2016-Jun-21 05:00S 34°53' W 156°18'1 0.8 1020.5 16.7
2016-Jun-21 04:00S 34°54' W 156°18'0 0.4 1019.9 16.8
2016-Jun-21 03:00S 34°55' W 156°18'1 0.9 1019.7 16.9
2016-Jun-21 02:00S 34°55' W 156°17'1 0.8 1019.4 17.0
2016-Jun-21 01:00S 34°55' W 156°18'0 0.0 1019.8 17.0
2016-Jun-21 00:00S 34°55' W 156°18'3 0.6 1019.6 17.0
2016-Jun-20 19:00S 34°56' W 156°14'2 1.1 1020.8 16.4
2016-Jun-20 17:00S 34°56' W 156°12'1 1.2 1019.2 16.3
2016-Jun-20 16:00S 34°58' W 156°12'   1018.2 16.2

Dump ship's entire track history